Alpine Village, Colorado
Current Conditions -  °F | °C
As of 1:34 PM on Saturday 25 Oct 2014 (Local Time) from K7BM Reporting Station
Clear Clear  
Wind Chill: 64°   Ceiling: Unl
Heat Index: 64°   Visibility: 10mi
Dew Point:   Wind: 6mph
Humidity: 8%   Direction: 110°ESE
Pressure: 30.44"   Gusts: NA
Location:  38.7194°N, 106.276°W
Report Text: K7BM 251934Z AUTO 11005KT 10SM CLR 18/M17 A3044 RMK AO2
Loading
Personal Weather Stations






























Interactive Weather Map New forecast layout! Learn more

10-Day Weather Forecast

Advertisements
Track Severe Weather on mobile